Time;durP1;ratioP1;P1;durP2;ratioP2;P2;SDS_P1;SDS_P2;PMS_P1;PMS_P2;Temp;Humidity;BMP_temperature;BMP_pressure;BME280_temperature;BME280_humidity;BME280_pressure;Samples;Min_cycle;Max_cycle;Signal;HPM_P1;HPM_P2
2024/01/05 00:02:04;;;;;;;18.20;2.73;;;;;;;-148.15;100.00;61821.78;5059987;28;20028;-94
2024/01/05 00:04:29;;;;;;;22.17;3.20;;;;;;;-148.15;100.00;61821.78;5053918;28;20021;-94
2024/01/05 00:06:55;;;;;;;32.10;3.23;;;;;;;-148.15;100.00;61821.78;5053939;28;20274;-94
2024/01/05 00:09:20;;;;;;;25.33;3.53;;;;;;;-148.15;100.00;61821.78;5051872;28;20095;-95
2024/01/05 00:11:47;;;;;;;32.87;4.10;;;;;;;-148.15;100.00;61821.78;5051280;28;20485;-94
2024/01/05 00:14:13;;;;;;;28.92;4.28;;;;;;;-148.15;100.00;61821.78;5053519;28;20020;-94
2024/01/05 00:16:38;;;;;;;24.47;3.30;;;;;;;-148.15;100.00;61821.78;5052723;28;20067;-94
2024/01/05 00:19:04;;;;;;;25.87;3.60;;;;;;;-148.15;100.00;61821.78;5052146;28;20029;-93
2024/01/05 00:21:29;;;;;;;30.02;4.25;;;;;;;-148.15;100.00;61821.78;5045444;28;20064;-94
2024/01/05 00:23:56;;;;;;;28.17;4.40;;;;;;;-148.15;100.00;61821.78;5051888;28;20033;-94
2024/01/05 00:26:23;;;;;;;28.00;3.58;;;;;;;-148.15;100.00;61821.78;5053290;28;20028;-95
2024/01/05 00:28:50;;;;;;;20.53;3.50;;;;;;;-148.15;100.00;61821.78;5055721;28;20036;-94
2024/01/05 00:31:16;;;;;;;20.33;4.03;;;;;;;-148.15;100.00;61821.78;5071067;28;20310;-93
2024/01/05 00:33:42;;;;;;;23.35;3.40;;;;;;;-148.15;100.00;61821.78;5059272;28;20041;-94
2024/01/05 00:36:09;;;;;;;28.50;4.30;;;;;;;-148.15;100.00;61821.78;5053694;28;20025;-93
2024/01/05 00:38:34;;;;;;;27.92;3.47;;;;;;;-148.15;100.00;61821.78;5085711;28;20056;-94
2024/01/05 00:41:00;;;;;;;24.75;3.42;;;;;;;-148.15;100.00;61821.78;5051262;28;20024;-94
2024/01/05 00:43:25;;;;;;;23.47;3.27;;;;;;;-148.15;100.00;61821.78;5053591;28;20505;-94
2024/01/05 00:45:51;;;;;;;23.13;3.60;;;;;;;-148.15;100.00;61821.78;5053200;28;20421;-93
2024/01/05 00:48:16;;;;;;;21.07;3.03;;;;;;;-148.15;100.00;61821.78;5052625;28;20028;-95
2024/01/05 00:50:41;;;;;;;24.10;3.43;;;;;;;-148.15;100.00;61821.78;5046476;28;20017;-94
2024/01/05 00:53:07;;;;;;;21.53;3.13;;;;;;;-148.15;100.00;61821.78;5046325;28;20021;-94
2024/01/05 00:55:36;;;;;;;25.10;3.30;;;;;;;-148.15;100.00;61821.78;5053346;28;20393;-94
2024/01/05 00:58:02;;;;;;;22.42;3.10;;;;;;;-148.15;100.00;61821.78;5051761;28;20032;-95
2024/01/05 01:00:27;;;;;;;23.20;2.90;;;;;;;-148.15;100.00;61821.78;5051489;28;20024;-93
2024/01/05 01:02:53;;;;;;;26.27;3.20;;;;;;;-148.15;100.00;61821.78;5043341;28;20033;-94
2024/01/05 01:05:18;;;;;;;24.97;3.00;;;;;;;-148.15;100.00;61821.78;5048208;28;20014;-94
2024/01/05 01:07:44;;;;;;;28.30;3.50;;;;;;;-148.15;100.00;61821.78;5044483;28;20021;-95
2024/01/05 01:10:09;;;;;;;18.23;3.10;;;;;;;-148.15;100.00;61821.78;5050873;28;20032;-93
2024/01/05 01:12:35;;;;;;;20.27;3.07;;;;;;;-148.15;100.00;61821.78;5053290;28;20505;-95
2024/01/05 01:15:00;;;;;;;22.10;2.60;;;;;;;-148.15;100.00;61821.78;5052817;28;20052;-94
2024/01/05 01:17:30;;;;;;;19.67;2.67;;;;;;;-148.15;100.00;61821.78;5052441;28;20480;-95
2024/01/05 01:20:08;;;;;;;21.13;2.60;;;;;;;-148.15;100.00;61821.78;5112044;22;20012;-94
2024/01/05 01:22:34;;;;;;;17.23;2.72;;;;;;;-148.15;100.00;61821.78;5013178;28;20745;-93
2024/01/05 01:25:00;;;;;;;16.90;2.20;;;;;;;-148.15;100.00;61821.78;4995052;28;20064;-92
2024/01/05 01:27:36;;;;;;;;;;;;;;;;;;;;;
2024/01/05 01:30:02;;;;;;;17.60;3.35;;;;;;;-148.15;100.00;61821.78;5015959;28;20043;-94
2024/01/05 01:32:28;;;;;;;19.77;2.43;;;;;;;-148.15;100.00;61821.78;5031577;28;20451;-93
2024/01/05 01:34:53;;;;;;;16.02;2.42;;;;;;;-148.15;100.00;61821.78;5011663;28;20037;-94
2024/01/05 01:37:19;;;;;;;22.73;2.70;;;;;;;-148.15;100.00;61821.78;5020360;28;20025;-94
2024/01/05 01:39:44;;;;;;;17.20;2.73;;;;;;;-148.15;100.00;61821.78;5033141;28;20562;-94
2024/01/05 01:42:09;;;;;;;12.93;2.03;;;;;;;-148.15;100.00;61821.78;5032401;28;20022;-95
2024/01/05 01:44:35;;;;;;;13.60;2.25;;;;;;;-148.15;100.00;61821.78;5032104;28;20079;-95
2024/01/05 01:47:00;;;;;;;14.23;2.07;;;;;;;-148.15;100.00;61821.78;5014472;28;20025;-95
2024/01/05 01:49:26;;;;;;;15.27;1.87;;;;;;;-148.15;100.00;61821.78;5011886;28;20033;-93
2024/01/05 01:51:53;;;;;;;13.90;2.10;;;;;;;-148.15;100.00;61821.78;5011136;28;20499;-94
2024/01/05 01:54:19;;;;;;;12.80;2.22;;;;;;;-148.15;100.00;61821.78;5027143;28;20057;-93
2024/01/05 01:56:45;;;;;;;15.57;2.28;;;;;;;-148.15;100.00;61821.78;5014618;28;20051;-94
2024/01/05 01:59:13;;;;;;;19.93;1.97;;;;;;;-148.15;100.00;61821.78;5047889;28;20057;-93
2024/01/05 02:01:41;;;;;;;20.57;2.43;;;;;;;-148.15;100.00;61821.78;5031396;28;20350;-94
2024/01/05 02:04:11;;;;;;;13.13;2.38;;;;;;;-148.15;100.00;61821.78;5032452;28;20095;-95
2024/01/05 02:06:37;;;;;;;20.95;2.63;;;;;;;-148.15;100.00;61821.78;5014260;28;20029;-94
2024/01/05 02:09:04;;;;;;;15.00;1.98;;;;;;;-148.15;100.00;61821.78;5031947;28;20030;-95
2024/01/05 02:11:29;;;;;;;15.63;2.17;;;;;;;-148.15;100.00;61821.78;5013838;28;20032;-94
2024/01/05 02:13:55;;;;;;;14.87;1.80;;;;;;;-148.15;100.00;61821.78;5013903;28;20030;-95
2024/01/05 02:16:20;;;;;;;13.83;2.10;;;;;;;-148.15;100.00;61821.78;5015786;28;20037;-95
2024/01/05 02:18:51;;;;;;;20.27;2.47;;;;;;;-148.15;100.00;61821.78;5017522;28;20025;-95
2024/01/05 02:21:27;;;;;;;;;;;;;;;;;;;;;
2024/01/05 02:23:53;;;;;;;13.23;1.83;;;;;;;-148.15;100.00;61821.78;5039943;28;20235;-94
2024/01/05 02:29:36;;;;;;;12.77;1.52;;;;;;;-148.15;100.00;61821.78;5023171;28;20140;-95
2024/01/05 02:32:16;;;;;;;16.95;2.25;;;;;;;-148.15;100.00;61821.78;5009904;28;20029;-93
2024/01/05 02:34:41;;;;;;;15.07;2.20;;;;;;;-148.15;100.00;61821.78;5019746;28;20104;-95
2024/01/05 02:37:26;;;;;;;13.27;2.00;;;;;;;-148.15;100.00;61821.78;5036512;28;20125;-95
2024/01/05 02:39:52;;;;;;;11.50;2.20;;;;;;;-148.15;100.00;61821.78;5016538;28;20029;-94
2024/01/05 02:42:17;;;;;;;14.57;1.67;;;;;;;-148.15;100.00;61821.78;5019121;28;20130;-95
2024/01/05 02:44:42;;;;;;;13.60;1.77;;;;;;;-148.15;100.00;61821.78;5024864;28;20085;-95
2024/01/05 02:47:09;;;;;;;20.37;2.30;;;;;;;-148.15;100.00;61821.78;5016747;28;20018;-95
2024/01/05 02:49:41;;;;;;;17.35;2.10;;;;;;;-148.15;100.00;61821.78;5002548;28;20025;-95
2024/01/05 02:52:15;;;;;;;13.32;1.80;;;;;;;-148.15;100.00;61821.78;5017703;28;20198;-95
2024/01/05 02:54:44;;;;;;;9.68;1.80;;;;;;;-148.15;100.00;61821.78;5016930;28;20038;-96
2024/01/05 02:57:28;;;;;;;11.85;2.13;;;;;;;-148.15;100.00;61821.78;5012621;28;20044;-93
2024/01/05 03:00:07;;;;;;;20.03;2.00;;;;;;;-148.15;100.00;61821.78;5035820;28;20029;-95
2024/01/05 03:02:35;;;;;;;14.70;2.30;;;;;;;-148.15;100.00;61821.78;5017988;28;20037;-94
2024/01/05 03:05:00;;;;;;;10.23;1.88;;;;;;;-148.15;100.00;61821.78;5016771;28;20021;-95
2024/01/05 03:07:37;;;;;;;13.83;2.20;;;;;;;-148.15;100.00;61821.78;5018366;28;20036;-94
2024/01/05 03:10:14;;;;;;;15.80;2.00;;;;;;;-148.15;100.00;61821.78;5035467;28;20484;-92
2024/01/05 03:12:48;;;;;;;12.23;2.40;;;;;;;-148.15;100.00;61821.78;5034086;28;20017;-94
2024/01/05 03:15:13;;;;;;;11.60;1.83;;;;;;;-148.15;100.00;61821.78;5018753;28;20120;-94
2024/01/05 03:17:52;;;;;;;14.43;1.83;;;;;;;-148.15;100.00;61821.78;5035633;28;20438;-95
2024/01/05 03:20:18;;;;;;;14.15;1.95;;;;;;;-148.15;100.00;61821.78;5018231;28;20052;-94
2024/01/05 03:22:55;;;;;;;12.90;2.45;;;;;;;-148.15;100.00;61821.78;5017798;28;20021;-94
2024/01/05 03:25:21;;;;;;;11.35;1.88;;;;;;;-148.15;100.00;61821.78;5018446;28;20125;-94
2024/01/05 03:30:46;;;;;;;8.60;1.60;;;;;;;-148.15;100.00;61821.78;4954570;28;20031;-96
2024/01/05 03:33:39;;;;;;;15.73;2.00;;;;;;;-148.15;100.00;61821.78;5040911;28;20124;-95
2024/01/05 03:36:22;;;;;;;12.73;1.63;;;;;;;-148.15;100.00;61821.78;5035760;28;20295;-95
2024/01/05 03:38:47;;;;;;;11.10;1.50;;;;;;;-148.15;100.00;61821.78;5017746;28;20417;-95
2024/01/05 03:41:20;;;;;;;13.25;1.88;;;;;;;-148.15;100.00;61821.78;5029636;28;20018;-95
2024/01/05 03:44:20;;;;;;;13.03;2.27;;;;;;;-148.15;100.00;61821.78;4997474;28;20037;-95
2024/01/05 03:47:18;;;;;;;13.18;1.58;;;;;;;-148.15;100.00;61821.78;5012746;28;20456;-94
2024/01/05 03:49:50;;;;;;;11.05;1.45;;;;;;;-148.15;100.00;61821.78;5049372;28;20186;-92
2024/01/05 03:52:30;;;;;;;9.98;1.50;;;;;;;-148.15;100.00;61821.78;5035347;28;20385;-94
2024/01/05 03:55:10;;;;;;;12.15;1.60;;;;;;;-148.15;100.00;61821.78;5036710;28;20025;-94
2024/01/05 03:57:44;;;;;;;12.00;2.17;;;;;;;-148.15;100.00;61821.78;5020654;28;20038;-95
2024/01/05 04:00:16;;;;;;;12.25;1.75;;;;;;;-148.15;100.00;61821.78;5049949;22;20069;-93
2024/01/05 04:02:49;;;;;;;7.70;1.50;;;;;;;-148.15;100.00;61821.78;4995486;28;20057;-92
2024/01/05 04:05:15;;;;;;;6.28;1.10;;;;;;;-148.15;100.00;61821.78;4995559;28;20033;-92
2024/01/05 04:07:56;;;;;;;11.73;1.63;;;;;;;-148.15;100.00;61821.78;4995199;28;20030;-93
2024/01/05 04:10:32;;;;;;;9.15;2.00;;;;;;;-148.15;100.00;61821.78;5051121;23;20096;-93
2024/01/05 04:12:57;;;;;;;5.60;1.48;;;;;;;-148.15;100.00;61821.78;5041375;28;20027;-92
2024/01/05 04:15:36;;;;;;;13.13;1.63;;;;;;;-148.15;100.00;61821.78;5053027;28;20443;-94
2024/01/05 04:18:16;;;;;;;10.13;1.70;;;;;;;-148.15;100.00;61821.78;5054909;28;20044;-93
2024/01/05 04:21:23;;;;;;;11.10;1.73;;;;;;;-148.15;100.00;61821.78;4983107;28;20062;-94
2024/01/05 04:23:48;;;;;;;11.40;1.48;;;;;;;-148.15;100.00;61821.78;4956502;28;20072;-92
2024/01/05 04:26:14;;;;;;;9.27;1.93;;;;;;;-148.15;100.00;61821.78;4975424;28;20074;-92
2024/01/05 04:28:45;;;;;;;8.50;1.60;;;;;;;-148.15;100.00;61821.78;4985327;28;20089;-90
2024/01/05 04:31:10;;;;;;;9.35;1.65;;;;;;;-148.15;100.00;61821.78;4968130;28;20051;-91
2024/01/05 04:33:41;;;;;;;8.77;1.70;;;;;;;-148.15;100.00;61821.78;4998461;28;20061;-92
2024/01/05 04:36:20;;;;;;;10.95;1.30;;;;;;;-148.15;100.00;61821.78;5011933;28;20117;-91
2024/01/05 04:39:02;;;;;;;8.10;1.30;;;;;;;-148.15;100.00;61821.78;5007455;28;20049;-92
2024/01/05 04:41:28;;;;;;;7.38;1.30;;;;;;;-148.15;100.00;61821.78;5008390;28;20022;-92
2024/01/05 04:44:04;;;;;;;8.87;1.20;;;;;;;-148.15;100.00;61821.78;5009207;28;20541;-90
2024/01/05 04:46:42;;;;;;;7.40;1.40;;;;;;;-148.15;100.00;61821.78;5028016;28;20287;-92
2024/01/05 04:49:40;;;;;;;9.90;1.50;;;;;;;-148.15;100.00;61821.78;4995363;28;20497;-92
2024/01/05 04:52:10;;;;;;;8.05;1.40;;;;;;;-148.15;100.00;61821.78;4911897;29;20233;-92
2024/01/05 04:54:36;;;;;;;7.95;1.45;;;;;;;-148.15;100.00;61821.78;5007872;28;20029;-92
2024/01/05 04:57:03;;;;;;;7.50;1.40;;;;;;;-148.15;100.00;61821.78;5007962;28;20037;-91
2024/01/05 04:59:31;;;;;;;15.40;2.00;;;;;;;-148.15;100.00;61821.78;5004825;28;20273;-92
2024/01/05 05:01:57;;;;;;;7.78;1.48;;;;;;;-148.15;100.00;61821.78;5026428;28;20092;-91
2024/01/05 05:04:28;;;;;;;9.55;1.63;;;;;;;-148.15;100.00;61821.78;5014288;28;20104;-91
2024/01/05 05:06:54;;;;;;;8.07;1.67;;;;;;;-148.15;100.00;61821.78;5014374;28;20018;-92
2024/01/05 05:09:21;;;;;;;6.40;1.27;;;;;;;-148.15;100.00;61821.78;5014293;28;20033;-92
2024/01/05 05:11:46;;;;;;;7.03;1.13;;;;;;;-148.15;100.00;61821.78;5045653;28;20093;-91
2024/01/05 05:14:15;;;;;;;10.67;1.27;;;;;;;-148.15;100.00;61821.78;5030643;28;20079;-91
2024/01/05 05:16:40;;;;;;;4.05;1.10;;;;;;;-148.15;100.00;61821.78;5025694;28;20049;-92
2024/01/05 05:19:05;;;;;;;8.97;1.23;;;;;;;-148.15;100.00;61821.78;5028753;28;20033;-91
2024/01/05 05:21:37;;;;;;;10.90;1.37;;;;;;;-148.15;100.00;61821.78;5023215;28;20061;-91
2024/01/05 05:24:03;;;;;;;9.18;1.13;;;;;;;-148.15;100.00;61821.78;4995590;28;20038;-91
2024/01/05 05:26:28;;;;;;;10.43;1.50;;;;;;;-148.15;100.00;61821.78;5014163;28;20413;-93
2024/01/05 05:29:03;;;;;;;7.47;1.00;;;;;;;-148.15;100.00;61821.78;4994605;28;20033;-92
2024/01/05 05:31:29;;;;;;;8.98;1.50;;;;;;;-148.15;100.00;61821.78;5011593;28;20492;-93
2024/01/05 05:33:55;;;;;;;10.77;1.20;;;;;;;-148.15;100.00;61821.78;5015480;28;20036;-91
2024/01/05 05:36:20;;;;;;;7.70;1.40;;;;;;;-148.15;100.00;61821.78;5007169;28;20031;-91
2024/01/05 05:38:46;;;;;;;4.20;1.00;;;;;;;-148.15;100.00;61821.78;5002500;28;20098;-91
2024/01/05 05:41:11;;;;;;;4.67;0.90;;;;;;;-148.15;100.00;61821.78;5011075;28;20052;-92
2024/01/05 05:43:36;;;;;;;6.30;1.20;;;;;;;-148.15;100.00;61821.78;5019248;28;20608;-90
2024/01/05 05:46:02;;;;;;;10.27;1.02;;;;;;;-148.15;100.00;61821.78;5010822;28;20559;-92
2024/01/05 05:48:27;;;;;;;7.50;1.10;;;;;;;-148.15;100.00;61821.78;4998139;28;20054;-90
2024/01/05 05:50:53;;;;;;;5.53;0.87;;;;;;;-148.15;100.00;61821.78;5011099;28;20026;-93
2024/01/05 05:53:18;;;;;;;4.80;0.90;;;;;;;-148.15;100.00;61821.78;5007546;28;20046;-90
2024/01/05 05:55:43;;;;;;;3.90;0.83;;;;;;;-148.15;100.00;61821.78;5020740;28;20077;-89
2024/01/05 05:58:09;;;;;;;10.03;1.30;;;;;;;-148.15;100.00;61821.78;5000359;28;20037;-92
2024/01/05 06:00:35;;;;;;;6.53;0.90;;;;;;;-148.15;100.00;61821.78;4999077;28;20073;-91
2024/01/05 06:03:01;;;;;;;4.18;0.80;;;;;;;-148.15;100.00;61821.78;5004718;28;20464;-92
2024/01/05 06:05:26;;;;;;;4.63;0.73;;;;;;;-148.15;100.00;61821.78;5005103;28;20053;-92
2024/01/05 06:07:52;;;;;;;2.33;0.60;;;;;;;-148.15;100.00;61821.78;5002599;28;20485;-92
2024/01/05 06:10:17;;;;;;;2.70;0.70;;;;;;;-148.15;100.00;61821.78;5013962;28;20161;-90
2024/01/05 06:12:42;;;;;;;3.50;0.50;;;;;;;-148.15;100.00;61821.78;5002072;28;20479;-90
2024/01/05 06:15:08;;;;;;;2.13;0.40;;;;;;;-148.15;100.00;61821.78;5006504;28;20831;-93
2024/01/05 06:17:34;;;;;;;0.90;0.40;;;;;;;-148.15;100.00;61821.78;5016166;28;20844;-88
2024/01/05 06:19:59;;;;;;;1.27;0.40;;;;;;;-148.15;100.00;61821.78;5012082;28;20097;-91
2024/01/05 06:22:24;;;;;;;1.97;0.30;;;;;;;-148.15;100.00;61821.78;5020251;28;20293;-89
2024/01/05 06:24:49;;;;;;;1.30;0.30;;;;;;;-148.15;100.00;61821.78;5018425;28;20033;-90
2024/01/05 06:27:15;;;;;;;1.33;0.40;;;;;;;-148.15;100.00;61821.78;5019091;28;20018;-90
2024/01/05 06:29:40;;;;;;;1.90;0.40;;;;;;;-148.15;100.00;61821.78;5014604;28;20529;-90
2024/01/05 06:32:06;;;;;;;1.73;0.30;;;;;;;-148.15;100.00;61821.78;5010176;28;20030;-90
2024/01/05 06:34:32;;;;;;;0.60;0.20;;;;;;;-148.15;100.00;61821.78;5010608;28;20014;-90
2024/01/05 06:36:59;;;;;;;1.38;0.30;;;;;;;-148.15;100.00;61821.78;5012371;28;20068;-90
2024/01/05 06:39:29;;;;;;;1.73;0.30;;;;;;;-148.15;100.00;61821.78;5032419;28;20433;-90
2024/01/05 06:41:54;;;;;;;1.38;0.28;;;;;;;-148.15;100.00;61821.78;5014336;28;20466;-90
2024/01/05 06:44:20;;;;;;;1.48;0.30;;;;;;;-148.15;100.00;61821.78;5003414;28;20006;-91
2024/01/05 06:46:45;;;;;;;0.50;0.30;;;;;;;-148.15;100.00;61821.78;5016830;28;20019;-91
2024/01/05 06:49:11;;;;;;;0.87;0.40;;;;;;;-148.15;100.00;61821.78;5030028;28;20212;-91
2024/01/05 06:51:40;;;;;;;2.03;0.50;;;;;;;-148.15;100.00;61821.78;5055537;28;20017;-91
2024/01/05 06:54:13;;;;;;;1.88;0.47;;;;;;;-148.15;100.00;61821.78;5039558;28;20117;-92
2024/01/05 06:56:38;;;;;;;1.33;0.50;;;;;;;-148.15;100.00;61821.78;5040849;28;20257;-92
2024/01/05 06:59:04;;;;;;;1.35;0.40;;;;;;;-148.15;100.00;61821.78;5032530;28;20101;-92
2024/01/05 07:01:31;;;;;;;1.67;0.50;;;;;;;-148.15;100.00;61821.78;5015103;28;20034;-90
2024/01/05 07:04:07;;;;;;;2.08;0.30;;;;;;;-148.15;100.00;61821.78;5015200;28;20026;-92
2024/01/05 07:09:55;;;;;;;13.97;0.50;;;;;;;-148.15;100.00;61821.78;5015366;28;20440;-91
2024/01/05 07:15:42;;;;;;;1.40;0.40;;;;;;;-148.15;100.00;61821.78;5004661;28;20064;-93
2024/01/05 07:18:08;;;;;;;2.57;0.20;;;;;;;-148.15;100.00;61821.78;5017908;28;20026;-94
2024/01/05 07:20:33;;;;;;;1.53;0.70;;;;;;;-148.15;100.00;61821.78;5018904;28;20033;-92
2024/01/05 07:22:59;;;;;;;0.85;0.30;;;;;;;-148.15;100.00;61821.78;5019697;28;20041;-90
2024/01/05 07:25:25;;;;;;;2.27;0.23;;;;;;;-148.15;100.00;61821.78;5019848;28;20030;-91
2024/01/05 07:27:50;;;;;;;1.27;0.22;;;;;;;-148.15;100.00;61821.78;5034830;28;20164;-92
2024/01/05 07:30:15;;;;;;;3.10;0.90;;;;;;;-148.15;100.00;61821.78;5037340;28;20018;-94
2024/01/05 07:32:41;;;;;;;1.17;0.90;;;;;;;-148.15;100.00;61821.78;5036396;28;20072;-93
2024/01/05 07:35:06;;;;;;;1.13;0.60;;;;;;;-148.15;100.00;61821.78;5032634;28;20030;-93
2024/01/05 07:37:32;;;;;;;0.45;0.30;;;;;;;-148.15;100.00;61821.78;5036742;28;20042;-92
2024/01/05 07:39:57;;;;;;;1.23;0.40;;;;;;;-148.15;100.00;61821.78;5030728;28;20045;-95
2024/01/05 07:42:26;;;;;;;1.50;0.40;;;;;;;-148.15;100.00;61821.78;5023617;28;20058;-93
2024/01/05 07:44:52;;;;;;;1.40;0.40;;;;;;;-148.15;100.00;61821.78;5000987;28;20365;-93
2024/01/05 07:47:17;;;;;;;2.28;0.47;;;;;;;-148.15;100.00;61821.78;5011314;28;20022;-89
2024/01/05 07:49:42;;;;;;;1.30;0.40;;;;;;;-148.15;100.00;61821.78;5010477;28;20086;-88
2024/01/05 07:52:09;;;;;;;0.77;0.30;;;;;;;-148.15;100.00;61821.78;5006781;28;20026;-91
2024/01/05 07:54:43;;;;;;;1.20;0.40;;;;;;;-148.15;100.00;61821.78;5015052;28;20092;-92
2024/01/05 07:57:29;;;;;;;1.80;0.30;;;;;;;-148.15;100.00;61821.78;4998917;28;20030;-96
2024/01/05 07:59:55;;;;;;;0.50;0.40;;;;;;;-148.15;100.00;61821.78;5010339;28;20029;-92
2024/01/05 08:02:20;;;;;;;2.42;0.22;;;;;;;-148.15;100.00;61821.78;5017120;28;20022;-91
2024/01/05 08:04:46;;;;;;;3.13;0.30;;;;;;;-148.15;100.00;61821.78;5002064;28;20104;-90
2024/01/05 08:07:12;;;;;;;1.42;0.40;;;;;;;-148.15;100.00;61821.78;5014822;28;20025;-89
2024/01/05 08:09:41;;;;;;;1.77;0.40;;;;;;;-148.15;100.00;61821.78;5010106;28;20026;-90
2024/01/05 08:12:06;;;;;;;0.95;0.40;;;;;;;-148.15;100.00;61821.78;5012259;28;20030;-91
2024/01/05 08:14:31;;;;;;;0.40;0.33;;;;;;;-148.15;100.00;61821.78;5014073;28;20037;-90
2024/01/05 08:16:57;;;;;;;2.20;0.40;;;;;;;-148.15;100.00;61821.78;5020257;28;20033;-90
2024/01/05 08:19:22;;;;;;;0.80;0.40;;;;;;;-148.15;100.00;61821.78;5011329;28;20292;-93
2024/01/05 08:21:47;;;;;;;14.37;4.67;;;;;;;-148.15;100.00;61821.78;4994373;28;20028;-91
2024/01/05 08:24:13;;;;;;;3.57;1.20;;;;;;;-148.15;100.00;61821.78;4992341;28;20082;-87
2024/01/05 08:26:38;;;;;;;2.00;0.50;;;;;;;-148.15;100.00;61821.78;4992624;28;20030;-88
2024/01/05 08:29:04;;;;;;;1.63;0.50;;;;;;;-148.15;100.00;61821.78;4991646;28;20081;-89
2024/01/05 08:31:29;;;;;;;4.05;1.30;;;;;;;-148.15;100.00;61821.78;5004987;28;20370;-87
2024/01/05 08:33:54;;;;;;;1.17;0.80;;;;;;;-148.15;100.00;61821.78;5007114;28;20029;-88
2024/01/05 08:36:19;;;;;;;2.27;1.00;;;;;;;-148.15;100.00;61821.78;5005945;28;20053;-90
2024/01/05 08:38:45;;;;;;;6.07;2.33;;;;;;;-148.15;100.00;61821.78;4996564;28;20030;-90
2024/01/05 08:41:10;;;;;;;0.80;0.53;;;;;;;-148.15;100.00;61821.78;4996332;28;20433;-87
2024/01/05 08:43:35;;;;;;;1.13;0.40;;;;;;;-148.15;100.00;61821.78;4991630;28;20042;-86
2024/01/05 08:46:01;;;;;;;0.97;0.40;;;;;;;-148.15;100.00;61821.78;5006447;28;20289;-86
2024/01/05 08:48:27;;;;;;;2.00;0.30;;;;;;;-148.15;100.00;61821.78;5011069;28;20427;-86
2024/01/05 08:50:52;;;;;;;1.87;0.60;;;;;;;-148.15;100.00;61821.78;5015418;28;20097;-86
2024/01/05 08:53:20;;;;;;;1.47;0.30;;;;;;;-148.15;100.00;61821.78;5004793;28;20091;-85
2024/01/05 08:55:45;;;;;;;1.98;0.40;;;;;;;-148.15;100.00;61821.78;4996175;28;20030;-87
2024/01/05 08:58:11;;;;;;;2.03;0.50;;;;;;;-148.15;100.00;61821.78;5009866;28;20022;-87
2024/01/05 09:00:36;;;;;;;1.73;0.30;;;;;;;-148.15;100.00;61821.78;5002471;28;20045;-90
2024/01/05 09:03:03;;;;;;;1.07;0.30;;;;;;;-148.15;100.00;61821.78;4996125;28;20033;-87
2024/01/05 09:05:29;;;;;;;1.35;0.35;;;;;;;-148.15;100.00;61821.78;5005953;28;20034;-88
2024/01/05 09:07:54;;;;;;;0.97;0.30;;;;;;;-148.15;100.00;61821.78;5009815;28;20033;-88
2024/01/05 09:10:20;;;;;;;1.93;0.30;;;;;;;-148.15;100.00;61821.78;5003826;28;20474;-85
2024/01/05 09:12:45;;;;;;;0.50;0.40;;;;;;;-148.15;100.00;61821.78;5007823;28;20033;-88
2024/01/05 09:15:10;;;;;;;4.00;0.90;;;;;;;-148.15;100.00;61821.78;5010217;28;20109;-85
2024/01/05 09:17:36;;;;;;;2.57;1.03;;;;;;;-148.15;100.00;61821.78;5010562;28;20038;-87
2024/01/05 09:26:58;;;;;;;0.93;0.23;;;;;;;-148.15;100.00;61821.78;5076438;23;20373;-92
2024/01/05 09:29:33;;;;;;;0.50;0.22;;;;;;;-148.15;100.00;61821.78;5029312;28;20456;-90
2024/01/05 09:32:07;;;;;;;0.82;0.50;;;;;;;-148.15;100.00;61821.78;5030634;28;20113;-89
2024/01/05 09:34:34;;;;;;;1.40;0.30;;;;;;;-148.15;100.00;61821.78;5030542;28;20484;-90
2024/01/05 09:37:00;;;;;;;0.32;0.32;;;;;;;-148.15;100.00;61821.78;5031491;28;20072;-90
2024/01/05 09:39:25;;;;;;;0.70;0.57;;;;;;;-148.15;100.00;61821.78;5031892;28;20068;-91
2024/01/05 09:41:50;;;;;;;1.03;0.30;;;;;;;-148.15;100.00;61821.78;5030008;28;20049;-91
2024/01/05 09:44:17;;;;;;;1.47;0.40;;;;;;;-148.15;100.00;61821.78;5030473;28;20119;-90
2024/01/05 09:47:17;;;;;;;;;;;;;;;;;;;;;
2024/01/05 09:52:29;;;;;;;2.63;0.63;;;;;;;-148.15;100.00;61821.78;5022682;28;20102;-89
2024/01/05 09:54:56;;;;;;;0.30;0.30;;;;;;;-148.15;100.00;61821.78;5030609;28;20759;-91
2024/01/05 09:57:22;;;;;;;1.10;0.30;;;;;;;-148.15;100.00;61821.78;5032507;28;20047;-90
2024/01/05 09:59:48;;;;;;;1.43;0.40;;;;;;;-148.15;100.00;61821.78;5032493;28;20064;-90
2024/01/05 10:02:58;;;;;;;1.48;0.52;;;;;;;-148.15;100.00;61821.78;5031616;28;20038;-92
2024/01/05 10:05:23;;;;;;;2.35;0.77;;;;;;;-148.15;100.00;61821.78;5027941;28;20125;-91
2024/01/05 10:07:48;;;;;;;2.33;0.80;;;;;;;-148.15;100.00;61821.78;5031914;28;20021;-92
2024/01/05 10:10:14;;;;;;;1.07;0.63;;;;;;;-148.15;100.00;61821.78;5042509;28;20010;-93
2024/01/05 10:12:40;;;;;;;3.72;0.73;;;;;;;-148.15;100.00;61821.78;5044823;28;20479;-91
2024/01/05 10:15:06;;;;;;;0.90;0.63;;;;;;;-148.15;100.00;61821.78;5031632;28;20033;-91
2024/01/05 10:17:33;;;;;;;2.20;0.90;;;;;;;-148.15;100.00;61821.78;5032020;28;20350;-91
2024/01/05 10:20:18;;;;;;;2.70;0.80;;;;;;;-148.15;100.00;61821.78;5034274;28;20374;-91
2024/01/05 10:22:46;;;;;;;3.75;0.70;;;;;;;-148.15;100.00;61821.78;5033276;28;20071;-92
2024/01/05 10:25:26;;;;;;;2.67;0.70;;;;;;;-148.15;100.00;61821.78;5031314;28;20030;-92
2024/01/05 10:27:59;;;;;;;2.27;1.00;;;;;;;-148.15;100.00;61821.78;5031084;28;20037;-92
2024/01/05 10:30:36;;;;;;;2.10;0.80;;;;;;;-148.15;100.00;61821.78;5032118;28;20292;-93
2024/01/05 10:33:07;;;;;;;3.40;0.82;;;;;;;-148.15;100.00;61821.78;5031094;28;20021;-94
2024/01/05 10:35:39;;;;;;;0.95;0.77;;;;;;;-148.15;100.00;61821.78;5032096;28;20044;-92
2024/01/05 10:38:21;;;;;;;2.93;0.80;;;;;;;-148.15;100.00;61821.78;5032260;28;20037;-91
2024/01/05 10:40:48;;;;;;;2.38;0.73;;;;;;;-148.15;100.00;61821.78;5030595;28;20036;-93
2024/01/05 10:43:54;;;;;;;2.03;0.68;;;;;;;-148.15;100.00;61821.78;5032362;28;20026;-93
2024/01/05 10:46:49;;;;;;;1.10;0.70;;;;;;;-148.15;100.00;61821.78;5032486;28;20094;-92
2024/01/05 10:54:50;;;;;;;1.20;0.63;;;;;;;-148.15;100.00;61821.78;4743945;26;20498;-93
2024/01/05 10:57:24;;;;;;;0.90;0.50;;;;;;;-148.15;100.00;61821.78;5015171;28;20033;-93
2024/01/05 11:00:08;;;;;;;1.15;0.60;;;;;;;-148.15;100.00;61821.78;5015768;28;20030;-91
2024/01/05 11:02:40;;;;;;;1.10;0.55;;;;;;;-148.15;100.00;61821.78;5018022;28;20041;-93
2024/01/05 11:05:22;;;;;;;1.27;0.70;;;;;;;-148.15;100.00;61821.78;5017615;28;20041;-92
2024/01/05 11:08:13;;;;;;;1.70;0.60;;;;;;;-148.15;100.00;61821.78;5020481;28;20033;-94
2024/01/05 11:11:03;;;;;;;2.33;0.70;;;;;;;-148.15;100.00;61821.78;5015574;28;20030;-92
2024/01/05 11:13:28;;;;;;;1.58;0.52;;;;;;;-148.15;100.00;61821.78;5015418;28;20026;-93
2024/01/05 11:16:32;;;;;;;1.10;0.60;;;;;;;-148.15;100.00;61821.78;5016308;28;20381;-91
2024/01/05 11:19:16;;;;;;;1.20;0.60;;;;;;;-148.15;100.00;61821.78;5016247;28;20450;-92
2024/01/05 11:22:01;;;;;;;1.38;0.70;;;;;;;-148.15;100.00;61821.78;5017292;28;20030;-93
2024/01/05 11:24:28;;;;;;;1.67;0.73;;;;;;;-148.15;100.00;61821.78;4999856;28;20034;-93
2024/01/05 11:26:56;;;;;;;2.00;0.70;;;;;;;-148.15;100.00;61821.78;5018223;28;20776;-91
2024/01/05 11:29:59;;;;;;;1.98;0.63;;;;;;;-148.15;100.00;61821.78;5027305;23;20052;-92
2024/01/05 11:32:45;;;;;;;2.63;0.80;;;;;;;-148.15;100.00;61821.78;5020017;28;20022;-92
2024/01/05 11:35:42;;;;;;;1.80;0.88;;;;;;;-148.15;100.00;61821.78;5017015;28;20030;-93
2024/01/05 11:41:19;;;;;;;1.37;0.73;;;;;;;-148.15;100.00;61821.78;4997389;28;20045;-93
2024/01/05 11:43:46;;;;;;;2.37;1.20;;;;;;;-148.15;100.00;61821.78;4997643;28;20273;-92
2024/01/05 11:46:15;;;;;;;3.67;1.23;;;;;;;-148.15;100.00;61821.78;4998897;28;20061;-93
2024/01/05 11:52:07;;;;;;;2.28;1.20;;;;;;;-148.15;100.00;61821.78;4991360;28;20040;-94
2024/01/05 11:55:07;;;;;;;3.88;1.15;;;;;;;-148.15;100.00;61821.78;4998666;28;20038;-91
2024/01/05 11:58:02;;;;;;;3.33;1.00;;;;;;;-148.15;100.00;61821.78;5015383;28;20034;-92